Terminal Aerodrome Forecast
Issued by NWS

Home | Current Version | Previous Version | Text Only | Print | Product List | Glossary On
Versions: 1 2 3 4 5 6 7 8 9 10 11 12 13 14 15 16 17 18 19 20
382
FTUS46 KLOX 280532
TAFPRB
TAF
KPRB 280532Z 2806/2906 30010G20KT P6SM SCT200
     FM281400 33010KT P6SM SKC
     FM281700 32016G22KT P6SM SKC
     FM282100 32014KT P6SM SKC
     FM290200 33020G30KT P6SM SKC=

USA.gov is the U.S. government's official web portal to all federal, state and local government web resources and services.